sensor_id;sensor_type;location;lat;lon;timestamp;pressure;altitude;pressure_sealevel;temperature;humidity
5574;BME280;2563;52.242;7.956;2023-04-21T00:01:02;99347.22;;;8.61;100.00
5574;BME280;2563;52.242;7.956;2023-04-21T00:03:28;99323.31;;;8.61;100.00
5574;BME280;2563;52.242;7.956;2023-04-21T00:05:57;99306.19;;;8.61;100.00
5574;BME280;2563;52.242;7.956;2023-04-21T00:08:25;99279.00;;;8.57;100.00
5574;BME280;2563;52.242;7.956;2023-04-21T00:10:51;99262.03;;;8.53;100.00
5574;BME280;2563;52.242;7.956;2023-04-21T00:13:16;99238.88;;;8.55;100.00
5574;BME280;2563;52.242;7.956;2023-04-21T00:15:42;99207.41;;;8.51;100.00
5574;BME280;2563;52.242;7.956;2023-04-21T00:18:07;99209.00;;;8.54;100.00
5574;BME280;2563;52.242;7.956;2023-04-21T00:20:34;99183.25;;;8.57;100.00
5574;BME280;2563;52.242;7.956;2023-04-21T00:23:00;99174.84;;;8.53;100.00
5574;BME280;2563;52.242;7.956;2023-04-21T00:25:26;99157.78;;;8.52;100.00
5574;BME280;2563;52.242;7.956;2023-04-21T00:27:51;99138.16;;;8.51;100.00
5574;BME280;2563;52.242;7.956;2023-04-21T00:30:17;99125.47;;;8.48;100.00
5574;BME280;2563;52.242;7.956;2023-04-21T00:32:42;99119.63;;;8.44;100.00
5574;BME280;2563;52.242;7.956;2023-04-21T00:35:08;99109.31;;;8.46;100.00
5574;BME280;2563;52.242;7.956;2023-04-21T00:37:34;99097.25;;;8.48;100.00
5574;BME280;2563;52.242;7.956;2023-04-21T00:39:59;99091.28;;;8.47;100.00
5574;BME280;2563;52.242;7.956;2023-04-21T00:42:25;99075.03;;;8.48;100.00
5574;BME280;2563;52.242;7.956;2023-04-21T00:44:51;99071.69;;;8.46;100.00
5574;BME280;2563;52.242;7.956;2023-04-21T00:47:17;99059.59;;;8.50;100.00
5574;BME280;2563;52.242;7.956;2023-04-21T00:49:42;99053.50;;;8.52;100.00
5574;BME280;2563;52.242;7.956;2023-04-21T00:52:08;99041.63;;;8.50;100.00
5574;BME280;2563;52.242;7.956;2023-04-21T00:54:34;99034.00;;;8.48;100.00
5574;BME280;2563;52.242;7.956;2023-04-21T00:57:00;99038.28;;;8.48;100.00
5574;BME280;2563;52.242;7.956;2023-04-21T00:59:26;99020.44;;;8.45;100.00
5574;BME280;2563;52.242;7.956;2023-04-21T01:01:52;99020.69;;;8.39;100.00
5574;BME280;2563;52.242;7.956;2023-04-21T01:04:18;99018.66;;;8.47;100.00
5574;BME280;2563;52.242;7.956;2023-04-21T01:06:43;99011.09;;;8.44;100.00
5574;BME280;2563;52.242;7.956;2023-04-21T01:09:09;99001.03;;;8.38;100.00
5574;BME280;2563;52.242;7.956;2023-04-21T01:11:36;99006.09;;;8.41;100.00
5574;BME280;2563;52.242;7.956;2023-04-21T01:14:02;98995.72;;;8.44;100.00
5574;BME280;2563;52.242;7.956;2023-04-21T01:16:29;99000.84;;;8.44;100.00
5574;BME280;2563;52.242;7.956;2023-04-21T01:18:56;98985.59;;;8.41;100.00
5574;BME280;2563;52.242;7.956;2023-04-21T01:21:21;98998.16;;;8.47;100.00
5574;BME280;2563;52.242;7.956;2023-04-21T01:23:47;98982.00;;;8.45;100.00
5574;BME280;2563;52.242;7.956;2023-04-21T01:26:16;98980.47;;;8.41;100.00
5574;BME280;2563;52.242;7.956;2023-04-21T01:28:42;98976.88;;;8.45;100.00
5574;BME280;2563;52.242;7.956;2023-04-21T01:31:07;98977.78;;;8.44;100.00
5574;BME280;2563;52.242;7.956;2023-04-21T01:33:32;98975.34;;;8.41;100.00
5574;BME280;2563;52.242;7.956;2023-04-21T01:35:58;98959.81;;;8.44;100.00
5574;BME280;2563;52.242;7.956;2023-04-21T01:38:25;98959.69;;;8.47;100.00
5574;BME280;2563;52.242;7.956;2023-04-21T01:40:53;98956.34;;;8.45;100.00
5574;BME280;2563;52.242;7.956;2023-04-21T01:43:22;98948.03;;;8.40;100.00
5574;BME280;2563;52.242;7.956;2023-04-21T01:45:48;98945.50;;;8.38;100.00
5574;BME280;2563;52.242;7.956;2023-04-21T01:48:13;98959.28;;;8.36;100.00
5574;BME280;2563;52.242;7.956;2023-04-21T01:50:39;98946.22;;;8.42;100.00
5574;BME280;2563;52.242;7.956;2023-04-21T01:53:04;98956.50;;;8.42;100.00
5574;BME280;2563;52.242;7.956;2023-04-21T01:55:29;98959.16;;;8.39;100.00
5574;BME280;2563;52.242;7.956;2023-04-21T01:57:55;98953.03;;;8.43;100.00
5574;BME280;2563;52.242;7.956;2023-04-21T02:00:23;98955.72;;;8.40;100.00
5574;BME280;2563;52.242;7.956;2023-04-21T02:02:48;98960.03;;;8.38;100.00
5574;BME280;2563;52.242;7.956;2023-04-21T02:05:14;98947.00;;;8.44;100.00
5574;BME280;2563;52.242;7.956;2023-04-21T02:07:39;98953.25;;;8.37;100.00
5574;BME280;2563;52.242;7.956;2023-04-21T02:10:05;98948.06;;;8.38;100.00
5574;BME280;2563;52.242;7.956;2023-04-21T02:12:30;98944.59;;;8.41;100.00
5574;BME280;2563;52.242;7.956;2023-04-21T02:14:55;98951.59;;;8.36;100.00
5574;BME280;2563;52.242;7.956;2023-04-21T02:17:21;98943.63;;;8.43;100.00
5574;BME280;2563;52.242;7.956;2023-04-21T02:19:46;98947.13;;;8.41;100.00
5574;BME280;2563;52.242;7.956;2023-04-21T02:22:12;98950.41;;;8.44;100.00
5574;BME280;2563;52.242;7.956;2023-04-21T02:24:38;98967.56;;;8.42;100.00
5574;BME280;2563;52.242;7.956;2023-04-21T02:27:03;98967.91;;;8.33;100.00
5574;BME280;2563;52.242;7.956;2023-04-21T02:29:29;98969.00;;;8.27;100.00
5574;BME280;2563;52.242;7.956;2023-04-21T02:31:55;98982.59;;;8.29;100.00
5574;BME280;2563;52.242;7.956;2023-04-21T02:34:20;98987.06;;;8.24;100.00
5574;BME280;2563;52.242;7.956;2023-04-21T02:36:46;98988.72;;;8.25;100.00
5574;BME280;2563;52.242;7.956;2023-04-21T02:39:11;98992.44;;;8.18;100.00
5574;BME280;2563;52.242;7.956;2023-04-21T02:41:38;99001.03;;;8.17;100.00
5574;BME280;2563;52.242;7.956;2023-04-21T02:44:03;99003.81;;;8.11;100.00
5574;BME280;2563;52.242;7.956;2023-04-21T02:46:29;99018.13;;;8.17;100.00
5574;BME280;2563;52.242;7.956;2023-04-21T02:48:55;99016.81;;;8.28;100.00
5574;BME280;2563;52.242;7.956;2023-04-21T02:51:20;99005.88;;;8.23;100.00
5574;BME280;2563;52.242;7.956;2023-04-21T02:53:45;99019.00;;;8.16;100.00
5574;BME280;2563;52.242;7.956;2023-04-21T02:56:11;99024.22;;;8.14;100.00
5574;BME280;2563;52.242;7.956;2023-04-21T02:58:36;99019.09;;;8.14;100.00
5574;BME280;2563;52.242;7.956;2023-04-21T03:01:03;99014.97;;;8.10;100.00
5574;BME280;2563;52.242;7.956;2023-04-21T03:03:29;99018.31;;;8.12;100.00
5574;BME280;2563;52.242;7.956;2023-04-21T03:06:00;99028.66;;;8.09;100.00
5574;BME280;2563;52.242;7.956;2023-04-21T03:08:25;99039.00;;;8.07;100.00
5574;BME280;2563;52.242;7.956;2023-04-21T03:10:51;99042.44;;;8.06;100.00
5574;BME280;2563;52.242;7.956;2023-04-21T03:13:16;99046.84;;;8.03;100.00
5574;BME280;2563;52.242;7.956;2023-04-21T03:15:42;99056.47;;;7.96;100.00
5574;BME280;2563;52.242;7.956;2023-04-21T03:18:07;99072.69;;;7.97;100.00
5574;BME280;2563;52.242;7.956;2023-04-21T03:20:33;99068.50;;;7.94;100.00
5574;BME280;2563;52.242;7.956;2023-04-21T03:22:58;99074.38;;;7.98;100.00
5574;BME280;2563;52.242;7.956;2023-04-21T03:25:23;99067.47;;;8.00;100.00
5574;BME280;2563;52.242;7.956;2023-04-21T03:27:51;99075.16;;;8.00;100.00
5574;BME280;2563;52.242;7.956;2023-04-21T03:30:16;99074.25;;;8.01;100.00
5574;BME280;2563;52.242;7.956;2023-04-21T03:32:42;99080.28;;;8.00;100.00
5574;BME280;2563;52.242;7.956;2023-04-21T03:35:07;99082.84;;;8.00;100.00
5574;BME280;2563;52.242;7.956;2023-04-21T03:37:33;99081.97;;;7.99;100.00
5574;BME280;2563;52.242;7.956;2023-04-21T03:39:58;99093.75;;;8.05;100.00
5574;BME280;2563;52.242;7.956;2023-04-21T03:42:23;99094.00;;;7.97;100.00
5574;BME280;2563;52.242;7.956;2023-04-21T03:44:50;99090.75;;;7.94;100.00
5574;BME280;2563;52.242;7.956;2023-04-21T03:47:15;99096.66;;;7.96;100.00
5574;BME280;2563;52.242;7.956;2023-04-21T03:49:41;99096.75;;;7.93;100.00
5574;BME280;2563;52.242;7.956;2023-04-21T03:52:07;99106.91;;;7.96;100.00
5574;BME280;2563;52.242;7.956;2023-04-21T03:54:32;99103.34;;;8.00;100.00
5574;BME280;2563;52.242;7.956;2023-04-21T03:56:57;99100.09;;;7.95;100.00
5574;BME280;2563;52.242;7.956;2023-04-21T03:59:23;99101.78;;;7.96;100.00
5574;BME280;2563;52.242;7.956;2023-04-21T04:01:48;99108.66;;;7.94;100.00
5574;BME280;2563;52.242;7.956;2023-04-21T04:04:13;99100.38;;;7.87;100.00
5574;BME280;2563;52.242;7.956;2023-04-21T04:06:39;99108.84;;;7.89;100.00
5574;BME280;2563;52.242;7.956;2023-04-21T04:09:04;99117.47;;;7.86;100.00
5574;BME280;2563;52.242;7.956;2023-04-21T04:11:30;99122.72;;;7.83;100.00
5574;BME280;2563;52.242;7.956;2023-04-21T04:13:56;99123.53;;;7.84;100.00
5574;BME280;2563;52.242;7.956;2023-04-21T04:16:22;99162.13;;;7.79;100.00
5574;BME280;2563;52.242;7.956;2023-04-21T04:18:49;99169.03;;;7.77;100.00
5574;BME280;2563;52.242;7.956;2023-04-21T04:21:14;99172.38;;;7.79;100.00
5574;BME280;2563;52.242;7.956;2023-04-21T04:23:39;99172.38;;;7.79;100.00
5574;BME280;2563;52.242;7.956;2023-04-21T04:26:05;99179.06;;;7.83;100.00
5574;BME280;2563;52.242;7.956;2023-04-21T04:28:30;99185.16;;;7.79;100.00
5574;BME280;2563;52.242;7.956;2023-04-21T04:30:56;99187.63;;;7.82;100.00
5574;BME280;2563;52.242;7.956;2023-04-21T04:33:21;99190.13;;;7.84;100.00
5574;BME280;2563;52.242;7.956;2023-04-21T04:35:47;99195.94;;;7.89;100.00
5574;BME280;2563;52.242;7.956;2023-04-21T04:38:12;99204.56;;;7.86;100.00
5574;BME280;2563;52.242;7.956;2023-04-21T04:40:41;99212.13;;;7.89;100.00
5574;BME280;2563;52.242;7.956;2023-04-21T04:43:06;99206.84;;;7.94;100.00
5574;BME280;2563;52.242;7.956;2023-04-21T04:45:32;99210.94;;;8.00;100.00
5574;BME280;2563;52.242;7.956;2023-04-21T04:47:58;99213.22;;;8.07;100.00
5574;BME280;2563;52.242;7.956;2023-04-21T04:50:24;99212.94;;;8.15;100.00
5574;BME280;2563;52.242;7.956;2023-04-21T04:52:49;99209.31;;;8.21;100.00
5574;BME280;2563;52.242;7.956;2023-04-21T04:55:15;99211.00;;;8.22;100.00
5574;BME280;2563;52.242;7.956;2023-04-21T04:57:40;99213.66;;;8.19;100.00
5574;BME280;2563;52.242;7.956;2023-04-21T05:00:09;99211.97;;;8.19;100.00
5574;BME280;2563;52.242;7.956;2023-04-21T05:02:36;99219.56;;;8.21;100.00
5574;BME280;2563;52.242;7.956;2023-04-21T05:05:03;99223.75;;;8.23;100.00
5574;BME280;2563;52.242;7.956;2023-04-21T05:07:28;99224.44;;;8.28;100.00
5574;BME280;2563;52.242;7.956;2023-04-21T05:09:53;99233.66;;;8.32;100.00
5574;BME280;2563;52.242;7.956;2023-04-21T05:12:19;99232.84;;;8.32;100.00
5574;BME280;2563;52.242;7.956;2023-04-21T05:14:44;99229.44;;;8.31;100.00
5574;BME280;2563;52.242;7.956;2023-04-21T05:17:10;99239.63;;;8.33;100.00
5574;BME280;2563;52.242;7.956;2023-04-21T05:19:36;99254.22;;;8.56;100.00
5574;BME280;2563;52.242;7.956;2023-04-21T05:22:04;99249.06;;;8.80;100.00
5574;BME280;2563;52.242;7.956;2023-04-21T05:24:32;99246.03;;;8.92;100.00
5574;BME280;2563;52.242;7.956;2023-04-21T05:26:57;99257.13;;;9.14;100.00
5574;BME280;2563;52.242;7.956;2023-04-21T05:29:22;99256.91;;;9.21;100.00
5574;BME280;2563;52.242;7.956;2023-04-21T05:31:48;99248.06;;;9.28;100.00
5574;BME280;2563;52.242;7.956;2023-04-21T05:34:13;99240.81;;;9.37;100.00
5574;BME280;2563;52.242;7.956;2023-04-21T05:36:42;99245.78;;;9.42;100.00
5574;BME280;2563;52.242;7.956;2023-04-21T05:39:08;99245.53;;;9.48;100.00
5574;BME280;2563;52.242;7.956;2023-04-21T05:41:33;99247.38;;;9.45;100.00
5574;BME280;2563;52.242;7.956;2023-04-21T05:43:59;99256.06;;;9.63;100.00
5574;BME280;2563;52.242;7.956;2023-04-21T05:46:24;99252.84;;;9.57;100.00
5574;BME280;2563;52.242;7.956;2023-04-21T05:48:49;99248.97;;;9.47;100.00
5574;BME280;2563;52.242;7.956;2023-04-21T05:51:15;99254.41;;;9.62;100.00
5574;BME280;2563;52.242;7.956;2023-04-21T05:53:41;99245.25;;;9.54;100.00
5574;BME280;2563;52.242;7.956;2023-04-21T05:56:08;99259.03;;;9.74;100.00
5574;BME280;2563;52.242;7.956;2023-04-21T05:58:34;99251.47;;;10.10;100.00
5574;BME280;2563;52.242;7.956;2023-04-21T06:01:00;99231.69;;;10.33;100.00
5574;BME280;2563;52.242;7.956;2023-04-21T06:03:25;99225.84;;;10.48;100.00
5574;BME280;2563;52.242;7.956;2023-04-21T06:05:54;99212.00;;;10.32;100.00
5574;BME280;2563;52.242;7.956;2023-04-21T06:08:21;99211.78;;;10.36;100.00
5574;BME280;2563;52.242;7.956;2023-04-21T06:10:46;99213.84;;;10.49;100.00
5574;BME280;2563;52.242;7.956;2023-04-21T06:13:12;99201.50;;;10.55;100.00
5574;BME280;2563;52.242;7.956;2023-04-21T06:15:37;99196.06;;;10.80;100.00
5574;BME280;2563;52.242;7.956;2023-04-21T06:18:02;99198.56;;;10.82;100.00
5574;BME280;2563;52.242;7.956;2023-04-21T06:20:28;99188.03;;;10.86;100.00
5574;BME280;2563;52.242;7.956;2023-04-21T06:22:53;99183.72;;;11.23;100.00
5574;BME280;2563;52.242;7.956;2023-04-21T06:25:19;99169.31;;;11.37;100.00
5574;BME280;2563;52.242;7.956;2023-04-21T06:27:44;99165.38;;;11.64;100.00
5574;BME280;2563;52.242;7.956;2023-04-21T06:30:10;99162.75;;;11.82;100.00
5574;BME280;2563;52.242;7.956;2023-04-21T06:32:35;99161.84;;;12.16;100.00
5574;BME280;2563;52.242;7.956;2023-04-21T06:35:01;99150.81;;;11.97;100.00
5574;BME280;2563;52.242;7.956;2023-04-21T06:37:26;99156.34;;;12.06;100.00
5574;BME280;2563;52.242;7.956;2023-04-21T06:39:51;99166.03;;;12.19;100.00
5574;BME280;2563;52.242;7.956;2023-04-21T06:42:17;99153.19;;;12.33;100.00
5574;BME280;2563;52.242;7.956;2023-04-21T06:44:42;99183.97;;;12.20;100.00
5574;BME280;2563;52.242;7.956;2023-04-21T06:47:07;99192.06;;;12.62;100.00
5574;BME280;2563;52.242;7.956;2023-04-21T06:49:33;99205.06;;;12.76;100.00
5574;BME280;2563;52.242;7.956;2023-04-21T06:51:59;99222.31;;;12.75;100.00
5574;BME280;2563;52.242;7.956;2023-04-21T06:54:24;99232.53;;;13.09;100.00
5574;BME280;2563;52.242;7.956;2023-04-21T06:56:49;99253.13;;;12.94;100.00
5574;BME280;2563;52.242;7.956;2023-04-21T06:59:15;99302.81;;;12.50;100.00
5574;BME280;2563;52.242;7.956;2023-04-21T07:01:40;99337.91;;;12.37;100.00
5574;BME280;2563;52.242;7.956;2023-04-21T07:04:06;99337.47;;;12.62;100.00
5574;BME280;2563;52.242;7.956;2023-04-21T07:06:31;99369.28;;;12.63;100.00
5574;BME280;2563;52.242;7.956;2023-04-21T07:08:57;99389.69;;;13.01;100.00
5574;BME280;2563;52.242;7.956;2023-04-21T07:11:22;99384.50;;;13.34;100.00
5574;BME280;2563;52.242;7.956;2023-04-21T07:13:47;99428.91;;;13.40;100.00
5574;BME280;2563;52.242;7.956;2023-04-21T07:16:13;99430.84;;;13.85;100.00
5574;BME280;2563;52.242;7.956;2023-04-21T07:18:39;99466.09;;;13.86;100.00
5574;BME280;2563;52.242;7.956;2023-04-21T07:21:04;99503.34;;;13.67;100.00
5574;BME280;2563;52.242;7.956;2023-04-21T07:23:30;99528.03;;;13.89;100.00
5574;BME280;2563;52.242;7.956;2023-04-21T07:25:55;99546.91;;;14.22;100.00
5574;BME280;2563;52.242;7.956;2023-04-21T07:28:20;99554.56;;;14.56;100.00
5574;BME280;2563;52.242;7.956;2023-04-21T07:30:46;99592.44;;;14.41;100.00
5574;BME280;2563;52.242;7.956;2023-04-21T07:33:12;99618.84;;;14.47;100.00
5574;BME280;2563;52.242;7.956;2023-04-21T07:35:38;99680.63;;;14.38;100.00
5574;BME280;2563;52.242;7.956;2023-04-21T07:38:03;99702.22;;;14.54;100.00
5574;BME280;2563;52.242;7.956;2023-04-21T07:40:29;99712.09;;;14.63;100.00
5574;BME280;2563;52.242;7.956;2023-04-21T07:42:55;99737.69;;;14.52;100.00
5574;BME280;2563;52.242;7.956;2023-04-21T07:45:20;99768.59;;;14.73;100.00
5574;BME280;2563;52.242;7.956;2023-04-21T07:47:45;99795.44;;;15.49;100.00
5574;BME280;2563;52.242;7.956;2023-04-21T07:50:11;99803.81;;;15.85;100.00
5574;BME280;2563;52.242;7.956;2023-04-21T07:52:36;99832.56;;;16.26;100.00
5574;BME280;2563;52.242;7.956;2023-04-21T07:55:02;99893.25;;;15.79;100.00
5574;BME280;2563;52.242;7.956;2023-04-21T07:57:27;99921.16;;;16.36;100.00
5574;BME280;2563;52.242;7.956;2023-04-21T07:59:53;99935.19;;;16.62;100.00
5574;BME280;2563;52.242;7.956;2023-04-21T08:02:18;99944.69;;;16.77;100.00
5574;BME280;2563;52.242;7.956;2023-04-21T08:04:44;99968.06;;;16.77;100.00
5574;BME280;2563;52.242;7.956;2023-04-21T08:07:09;100016.19;;;16.85;100.00
5574;BME280;2563;52.242;7.956;2023-04-21T08:09:34;100050.28;;;16.64;100.00
5574;BME280;2563;52.242;7.956;2023-04-21T08:12:00;100092.50;;;16.84;100.00
5574;BME280;2563;52.242;7.956;2023-04-21T08:14:26;100032.63;;;17.71;100.00
5574;BME280;2563;52.242;7.956;2023-04-21T08:16:52;100107.66;;;16.45;100.00
5574;BME280;2563;52.242;7.956;2023-04-21T08:19:18;100157.56;;;16.34;100.00
5574;BME280;2563;52.242;7.956;2023-04-21T08:21:43;100157.41;;;16.85;100.00
5574;BME280;2563;52.242;7.956;2023-04-21T08:24:08;100146.53;;;16.78;100.00
5574;BME280;2563;52.242;7.956;2023-04-21T08:26:34;100178.47;;;16.33;100.00
5574;BME280;2563;52.242;7.956;2023-04-21T08:28:59;100208.13;;;15.95;100.00
5574;BME280;2563;52.242;7.956;2023-04-21T08:31:25;100261.44;;;15.85;100.00
5574;BME280;2563;52.242;7.956;2023-04-21T08:33:52;100251.53;;;16.43;100.00
5574;BME280;2563;52.242;7.956;2023-04-21T08:36:17;100216.84;;;16.59;100.00
5574;BME280;2563;52.242;7.956;2023-04-21T08:38:43;100222.50;;;16.19;100.00
5574;BME280;2563;52.242;7.956;2023-04-21T08:41:12;100199.75;;;16.06;100.00
5574;BME280;2563;52.242;7.956;2023-04-21T08:43:37;100217.63;;;15.79;100.00
5574;BME280;2563;52.242;7.956;2023-04-21T08:46:06;100277.91;;;15.49;100.00
5574;BME280;2563;52.242;7.956;2023-04-21T08:48:35;100205.53;;;15.61;100.00
5574;BME280;2563;52.242;7.956;2023-04-21T08:51:02;100233.53;;;15.37;100.00
5574;BME280;2563;52.242;7.956;2023-04-21T08:53:27;100262.38;;;15.48;100.00
5574;BME280;2563;52.242;7.956;2023-04-21T08:55:54;100264.91;;;16.02;100.00
5574;BME280;2563;52.242;7.956;2023-04-21T08:58:20;100253.09;;;16.29;100.00
5574;BME280;2563;52.242;7.956;2023-04-21T09:00:50;100200.75;;;15.88;100.00
5574;BME280;2563;52.242;7.956;2023-04-21T09:03:22;100206.84;;;15.69;100.00
5574;BME280;2563;52.242;7.956;2023-04-21T09:05:58;100214.88;;;15.47;100.00
5574;BME280;2563;52.242;7.956;2023-04-21T09:08:23;100233.75;;;15.32;100.00
5574;BME280;2563;52.242;7.956;2023-04-21T09:10:52;100215.31;;;15.21;100.00
5574;BME280;2563;52.242;7.956;2023-04-21T09:13:18;100245.50;;;15.39;100.00
5574;BME280;2563;52.242;7.956;2023-04-21T09:15:49;100276.97;;;15.68;100.00
5574;BME280;2563;52.242;7.956;2023-04-21T09:18:21;100268.16;;;16.23;100.00
5574;BME280;2563;52.242;7.956;2023-04-21T09:20:49;100256.28;;;16.34;100.00
5574;BME280;2563;52.242;7.956;2023-04-21T09:23:15;100229.75;;;16.61;100.00
5574;BME280;2563;52.242;7.956;2023-04-21T09:25:43;100207.88;;;16.65;100.00
5574;BME280;2563;52.242;7.956;2023-04-21T09:28:10;100197.13;;;16.55;100.00
5574;BME280;2563;52.242;7.956;2023-04-21T09:30:37;100240.56;;;16.85;100.00
5574;BME280;2563;52.242;7.956;2023-04-21T09:33:02;100190.72;;;17.83;100.00
5574;BME280;2563;52.242;7.956;2023-04-21T09:35:33;100184.47;;;18.00;100.00
5574;BME280;2563;52.242;7.956;2023-04-21T09:38:02;100171.75;;;18.24;100.00
5574;BME280;2563;52.242;7.956;2023-04-21T09:40:29;100129.59;;;18.72;100.00
5574;BME280;2563;52.242;7.956;2023-04-21T09:42:55;100051.66;;;19.46;100.00
5574;BME280;2563;52.242;7.956;2023-04-21T09:45:24;100043.28;;;19.66;100.00
5574;BME280;2563;52.242;7.956;2023-04-21T09:47:51;100027.81;;;19.63;100.00
5574;BME280;2563;52.242;7.956;2023-04-21T09:50:20;100088.84;;;19.11;100.00
5574;BME280;2563;52.242;7.956;2023-04-21T09:52:49;100058.13;;;19.27;100.00
5574;BME280;2563;52.242;7.956;2023-04-21T09:55:15;100001.56;;;20.14;100.00
5574;BME280;2563;52.242;7.956;2023-04-21T09:57:43;99971.44;;;20.68;100.00
5574;BME280;2563;52.242;7.956;2023-04-21T10:00:12;99930.22;;;20.83;100.00
5574;BME280;2563;52.242;7.956;2023-04-21T10:02:42;99889.41;;;21.03;100.00
5574;BME280;2563;52.242;7.956;2023-04-21T10:05:09;99838.47;;;21.62;100.00
5574;BME280;2563;52.242;7.956;2023-04-21T10:07:35;99893.59;;;20.72;100.00
5574;BME280;2563;52.242;7.956;2023-04-21T10:10:00;99943.69;;;20.43;100.00
5574;BME280;2563;52.242;7.956;2023-04-21T10:12:27;99980.13;;;19.48;100.00
5574;BME280;2563;52.242;7.956;2023-04-21T10:14:54;99999.69;;;19.30;100.00
5574;BME280;2563;52.242;7.956;2023-04-21T10:17:24;99967.06;;;19.61;100.00
5574;BME280;2563;52.242;7.956;2023-04-21T10:19:54;99964.78;;;19.57;100.00
5574;BME280;2563;52.242;7.956;2023-04-21T10:22:31;99949.16;;;19.81;100.00
5574;BME280;2563;52.242;7.956;2023-04-21T10:24:58;99976.19;;;19.43;100.00
5574;BME280;2563;52.242;7.956;2023-04-21T10:27:35;99939.44;;;19.83;100.00
5574;BME280;2563;52.242;7.956;2023-04-21T10:30:21;99964.41;;;19.37;100.00
5574;BME280;2563;52.242;7.956;2023-04-21T10:32:47;99988.63;;;19.01;100.00
5574;BME280;2563;52.242;7.956;2023-04-21T10:35:15;100041.59;;;18.63;100.00
5574;BME280;2563;52.242;7.956;2023-04-21T10:37:42;99931.25;;;20.23;100.00
5574;BME280;2563;52.242;7.956;2023-04-21T10:42:55;99845.34;;;20.76;100.00
5574;BME280;2563;52.242;7.956;2023-04-21T10:45:24;99825.81;;;21.35;100.00
5574;BME280;2563;52.242;7.956;2023-04-21T10:47:51;99913.06;;;20.56;100.00
5574;BME280;2563;52.242;7.956;2023-04-21T10:50:22;99865.09;;;21.35;100.00
5574;BME280;2563;52.242;7.956;2023-04-21T10:53:07;99883.47;;;21.67;100.00
5574;BME280;2563;52.242;7.956;2023-04-21T10:55:34;99873.03;;;22.09;100.00
5574;BME280;2563;52.242;7.956;2023-04-21T10:58:05;99834.28;;;22.64;100.00
5574;BME280;2563;52.242;7.956;2023-04-21T11:00:32;99892.63;;;22.78;100.00
5574;BME280;2563;52.242;7.956;2023-04-21T11:03:02;100021.22;;;22.45;100.00
5574;BME280;2563;52.242;7.956;2023-04-21T11:08:13;100300.19;;;21.16;100.00
5574;BME280;2563;52.242;7.956;2023-04-21T11:10:44;100394.88;;;21.71;100.00
5574;BME280;2563;52.242;7.956;2023-04-21T11:13:10;100475.03;;;21.73;100.00
5574;BME280;2563;52.242;7.956;2023-04-21T11:15:35;100491.25;;;21.78;100.00
5574;BME280;2563;52.242;7.956;2023-04-21T11:18:01;100500.38;;;21.36;100.00
5574;BME280;2563;52.242;7.956;2023-04-21T11:20:27;100485.00;;;21.68;100.00
5574;BME280;2563;52.242;7.956;2023-04-21T11:22:55;100468.44;;;21.43;100.00
5574;BME280;2563;52.242;7.956;2023-04-21T11:25:20;100438.97;;;20.77;100.00
5574;BME280;2563;52.242;7.956;2023-04-21T11:27:53;100448.41;;;20.93;100.00
5574;BME280;2563;52.242;7.956;2023-04-21T11:30:19;100474.03;;;21.63;100.00
5574;BME280;2563;52.242;7.956;2023-04-21T11:32:45;100447.88;;;21.37;100.00
5574;BME280;2563;52.242;7.956;2023-04-21T11:35:10;100435.56;;;21.39;100.00
5574;BME280;2563;52.242;7.956;2023-04-21T11:37:36;100441.94;;;21.48;100.00
5574;BME280;2563;52.242;7.956;2023-04-21T11:40:02;100468.34;;;22.52;100.00
5574;BME280;2563;52.242;7.956;2023-04-21T11:42:30;100414.59;;;21.39;100.00
5574;BME280;2563;52.242;7.956;2023-04-21T11:44:56;100410.28;;;21.38;100.00
5574;BME280;2563;52.242;7.956;2023-04-21T11:47:23;100386.44;;;20.55;100.00
5574;BME280;2563;52.242;7.956;2023-04-21T11:50:00;100378.47;;;20.05;100.00
5574;BME280;2563;52.242;7.956;2023-04-21T11:52:33;100375.94;;;20.04;100.00
5574;BME280;2563;52.242;7.956;2023-04-21T11:55:05;100368.31;;;20.01;100.00
5574;BME280;2563;52.242;7.956;2023-04-21T11:57:32;100384.78;;;20.28;100.00
5574;BME280;2563;52.242;7.956;2023-04-21T11:59:59;100372.09;;;20.35;100.00
5574;BME280;2563;52.242;7.956;2023-04-21T12:02:26;100406.53;;;21.30;100.00
5574;BME280;2563;52.242;7.956;2023-04-21T12:05:32;100419.47;;;22.16;100.00
5574;BME280;2563;52.242;7.956;2023-04-21T12:07:58;100417.88;;;22.38;98.56
5574;BME280;2563;52.242;7.956;2023-04-21T12:10:23;100445.56;;;23.43;97.56
5574;BME280;2563;52.242;7.956;2023-04-21T12:12:49;100442.38;;;23.83;94.44
5574;BME280;2563;52.242;7.956;2023-04-21T12:15:18;100427.97;;;23.23;90.46
5574;BME280;2563;52.242;7.956;2023-04-21T12:17:45;100418.28;;;23.34;88.96
5574;BME280;2563;52.242;7.956;2023-04-21T12:20:12;100403.72;;;22.97;86.80
5574;BME280;2563;52.242;7.956;2023-04-21T12:22:39;100399.69;;;23.04;86.10
5574;BME280;2563;52.242;7.956;2023-04-21T12:25:05;100393.00;;;23.00;85.52
5574;BME280;2563;52.242;7.956;2023-04-21T12:27:30;100387.13;;;22.73;86.19
5574;BME280;2563;52.242;7.956;2023-04-21T12:29:56;100386.69;;;22.80;85.87
5574;BME280;2563;52.242;7.956;2023-04-21T12:32:21;100396.72;;;23.08;84.29
5574;BME280;2563;52.242;7.956;2023-04-21T12:34:47;100404.06;;;23.37;83.81
5574;BME280;2563;52.242;7.956;2023-04-21T12:37:12;100376.78;;;23.06;82.48
5574;BME280;2563;52.242;7.956;2023-04-21T12:39:37;100344.41;;;22.26;81.14
5574;BME280;2563;52.242;7.956;2023-04-21T12:42:03;100354.25;;;22.58;82.19
5574;BME280;2563;52.242;7.956;2023-04-21T12:44:28;100371.63;;;22.82;81.49
5574;BME280;2563;52.242;7.956;2023-04-21T12:46:54;100353.25;;;22.82;79.83
5574;BME280;2563;52.242;7.956;2023-04-21T12:49:21;100386.88;;;23.10;79.83
5574;BME280;2563;52.242;7.956;2023-04-21T12:51:47;100365.19;;;23.08;79.23
5574;BME280;2563;52.242;7.956;2023-04-21T12:54:13;100359.94;;;23.08;78.70
5574;BME280;2563;52.242;7.956;2023-04-21T12:56:39;100354.09;;;23.05;77.57
5574;BME280;2563;52.242;7.956;2023-04-21T12:59:06;100342.75;;;22.93;77.88
5574;BME280;2563;52.242;7.956;2023-04-21T13:01:31;100358.34;;;23.28;77.62
5574;BME280;2563;52.242;7.956;2023-04-21T13:03:57;100335.84;;;22.92;76.38
5574;BME280;2563;52.242;7.956;2023-04-21T13:06:24;100348.38;;;23.00;78.03
5574;BME280;2563;52.242;7.956;2023-04-21T13:08:50;100331.31;;;22.94;77.54
5574;BME280;2563;52.242;7.956;2023-04-21T13:11:15;100342.66;;;23.06;77.12
5574;BME280;2563;52.242;7.956;2023-04-21T13:13:41;100332.25;;;23.04;76.49